Terminal Aerodrome Forecast
Issued by NWS

Home | Current Version | Previous Version | Text Only | Print | Product List | Glossary On
Versions: 1 2 3 4 5 6 7 8 9 10 11 12
000
FTUS43 KEAX 060500
TAFSTJ
TAF
KSTJ 060520Z 0606/0706 17011KT P6SM OVC250
     FM061700 20014G22KT P6SM SCT050
     FM062200 20014G22KT P6SM VCTS BKN040CB
      TEMPO 0623/0702 2SM TSRA OVC015CB
     FM070300 35015KT P6SM SCT018 OVC025=

USA.gov is the U.S. government's official web portal to all federal, state and local government web resources and services.